Decoded Metar for GCFV (FUERTEVENTURA in SPAIN) (IATA:FUE) | Meteo·Mobile Aviation Weather
aviador You're here:

GCFV Decoded Metar

FUERTEVENTURA in SPAIN
Report Time2018-11-14 11:30:00
UTC Time2018-11-14 11:48:10
Flight Rules vfr VFR
Wind040° at 10 kt
W.Decomp.*RWY 01: 8.2 kt HW 5.7 kt RCW
W.Rank040° ranks 1
Current wind is below 040° avg. (13.4)
Visibility9999 m
Phenomena:N/A
Clouds:Few 035 Hf
Expected CloudBase > 3,200 ft AGL from Temp-Dew spread
CeilingNone
Temp22°C (ISA +7)
Dew Point14°C (61% RH)
AAT19.7°C
QNH1017 hPa
Density Alt988 ft
Elevation75 ft
Report Wrong Elevation
Raw Report
GCFV 141130Z 04010KT 9999 FEW035 22/14 Q1017=

Extra information for GCFV:More info

Metar Taf Metar & Taf Last 4 Metars F.Rules Stats Wind Profile Meteogram Temp Stats Airport Information Weather charts Add Link Nearby VenuesMetar ALERT Operation Metar Decoded Social comments